createdAt,value
2018-11-23T00:00:54.335Z,97.00
2018-11-23T00:01:54.326Z,97.36
2018-11-23T00:02:54.314Z,97.26
2018-11-23T00:03:54.300Z,97.16
2018-11-23T00:04:54.332Z,97.74
2018-11-23T00:05:54.280Z,96.42
2018-11-23T00:06:54.268Z,97.16
2018-11-23T00:07:54.262Z,96.42
2018-11-23T00:08:54.246Z,96.67
2018-11-23T00:09:54.233Z,96.25
2018-11-23T00:10:54.247Z,96.67
2018-11-23T00:11:54.211Z,96.47
2018-11-23T00:12:54.200Z,96.25
2018-11-23T00:13:54.188Z,96.36
2018-11-23T00:14:54.177Z,96.51
2018-11-23T00:15:54.166Z,96.83
2018-11-23T00:16:54.196Z,96.67
2018-11-23T00:17:54.142Z,97.62
2018-11-23T00:18:54.131Z,97.66
2018-11-23T00:19:54.123Z,96.99
2018-11-23T00:20:54.114Z,97.09
2018-11-23T00:21:54.097Z,96.99
2018-11-23T00:22:54.113Z,97.72
2018-11-23T00:23:54.076Z,97.03
2018-11-23T00:24:54.064Z,97.35
2018-11-23T00:25:54.052Z,97.56
2018-11-23T00:26:54.040Z,97.14
2018-11-23T00:27:54.029Z,97.56
2018-11-23T00:28:54.041Z,96.93
2018-11-23T00:29:54.007Z,97.62
2018-11-23T00:30:54.001Z,96.93
2018-11-23T00:31:53.984Z,97.14
2018-11-23T00:32:53.975Z,96.93
2018-11-23T00:33:53.963Z,96.93
2018-11-23T00:34:53.972Z,97.03
2018-11-23T00:35:53.942Z,96.83
2018-11-23T00:36:53.928Z,97.45
2018-11-23T00:37:53.919Z,97.56
2018-11-23T00:38:53.904Z,97.56
2018-11-23T00:39:53.895Z,97.56
2018-11-23T00:40:53.906Z,98.08
2018-11-23T00:41:53.871Z,97.66
2018-11-23T00:42:53.862Z,98.02
2018-11-23T00:43:53.852Z,98.19
2018-11-23T00:44:53.838Z,98.13
2018-11-23T00:45:53.829Z,97.98
2018-11-23T00:46:53.855Z,97.81
2018-11-23T00:47:53.805Z,98.13
2018-11-23T00:48:53.792Z,98.29
2018-11-23T00:49:53.779Z,98.77
2018-11-23T00:50:53.781Z,98.77
2018-11-23T00:51:53.761Z,99.71
2018-11-23T00:52:53.774Z,98.98
2018-11-23T00:53:53.734Z,98.77
2018-11-23T00:54:53.724Z,98.83
2018-11-23T00:55:53.717Z,99.84
2018-11-23T00:56:53.702Z,99.73
2018-11-23T00:57:53.691Z,99.58
2018-11-23T00:58:53.704Z,99.37
2018-11-23T00:59:53.668Z,99.43
2018-11-23T01:00:53.663Z,99.85
2018-11-23T01:01:53.645Z,99.95
2018-11-23T01:02:53.671Z,99.22
2018-11-23T01:03:53.622Z,99.64
2018-11-23T01:04:53.635Z,99.54
2018-11-23T01:05:53.599Z,99.01
2018-11-23T01:06:53.623Z,99.05
2018-11-23T01:07:53.579Z,98.95
2018-11-23T01:08:53.570Z,99.48
2018-11-23T01:09:53.557Z,99.00
2018-11-23T01:10:53.565Z,99.21
2018-11-23T01:11:53.532Z,98.79
2018-11-23T01:12:53.528Z,98.79
2018-11-23T01:13:53.514Z,98.37
2018-11-23T01:14:53.497Z,98.16
2018-11-23T01:15:53.485Z,97.78
2018-11-23T01:16:53.497Z,97.78
2018-11-23T01:17:53.465Z,97.89
2018-11-23T01:18:53.454Z,98.04
2018-11-23T01:19:53.443Z,97.52
2018-11-23T01:20:53.431Z,97.83
2018-11-23T01:21:53.418Z,97.41
2018-11-23T01:22:53.451Z,97.30
2018-11-23T01:23:53.395Z,97.56
2018-11-23T01:24:53.385Z,97.30
2018-11-23T01:25:53.391Z,97.24
2018-11-23T01:26:53.361Z,97.98
2018-11-23T01:27:53.358Z,97.66
2018-11-23T01:28:53.362Z,97.87
2018-11-23T01:29:53.330Z,97.87
2018-11-23T01:30:53.316Z,98.19
2018-11-23T01:31:53.316Z,97.98
2018-11-23T01:32:53.294Z,97.98
2018-11-23T01:33:53.282Z,98.08
2018-11-23T01:34:53.296Z,97.98
2018-11-23T01:35:53.260Z,98.34
2018-11-23T01:36:53.250Z,98.02
2018-11-23T01:37:53.238Z,98.08
2018-11-23T01:38:53.225Z,97.87
2018-11-23T01:39:53.215Z,97.77
2018-11-23T01:40:53.227Z,98.08
2018-11-23T01:41:53.195Z,98.55
2018-11-23T01:42:53.181Z,98.29
2018-11-23T01:43:53.170Z,98.92
2018-11-23T01:44:53.169Z,98.71
2018-11-23T01:45:53.146Z,98.86
2018-11-23T01:46:53.159Z,98.61
2018-11-23T01:47:53.125Z,99.18
2018-11-23T01:48:53.112Z,98.82
2018-11-23T01:49:53.104Z,99.24
2018-11-23T01:50:53.090Z,98.82
2018-11-23T01:51:53.084Z,98.86
2018-11-23T01:52:53.092Z,98.86
2018-11-23T01:53:53.056Z,98.55
2018-11-23T01:54:53.045Z,98.75
2018-11-23T01:55:53.034Z,98.71
2018-11-23T01:56:53.022Z,98.92
2018-11-23T01:57:53.016Z,98.61
2018-11-23T01:58:53.025Z,98.39
2018-11-23T01:59:52.989Z,99.18
2018-11-23T02:00:52.979Z,98.86
2018-11-23T02:01:52.968Z,98.86
2018-11-23T02:02:52.956Z,98.65
2018-11-23T02:03:52.944Z,99.18
2018-11-23T02:04:52.975Z,98.75
2018-11-23T02:05:52.921Z,98.97
2018-11-23T02:06:52.909Z,99.07
2018-11-23T02:07:52.900Z,98.75
2018-11-23T02:08:52.889Z,99.28
2018-11-23T02:09:52.878Z,99.01
2018-11-23T02:10:52.885Z,99.01
2018-11-23T02:11:52.854Z,98.13
2018-11-23T02:12:52.846Z,98.91
2018-11-23T02:13:52.833Z,99.07
2018-11-23T02:14:52.821Z,98.97
2018-11-23T02:15:52.827Z,98.75
2018-11-23T02:16:52.801Z,99.07
2018-11-23T02:17:52.787Z,98.86
2018-11-23T02:18:52.775Z,98.97
2018-11-23T02:19:52.766Z,99.07
2018-11-23T02:20:52.779Z,98.97
2018-11-23T02:21:52.742Z,98.17
2018-11-23T02:22:59.766Z,98.28
2018-11-23T02:23:52.720Z,98.59
2018-11-23T02:24:52.713Z,98.53
2018-11-23T02:25:52.698Z,97.86
2018-11-23T02:26:52.711Z,98.38
2018-11-23T02:27:52.676Z,98.49
2018-11-23T02:28:52.665Z,98.28
2018-11-23T02:29:52.656Z,98.17
2018-11-23T02:30:52.641Z,97.96
2018-11-23T02:31:52.628Z,97.75
2018-11-23T02:32:52.640Z,97.75
2018-11-23T02:33:52.611Z,98.43
2018-11-23T02:34:52.598Z,98.00
2018-11-23T02:35:52.589Z,97.80
2018-11-23T02:36:52.577Z,97.90
2018-11-23T02:37:52.588Z,97.69
2018-11-23T02:38:52.551Z,97.69
2018-11-23T02:39:52.549Z,97.48
2018-11-23T02:40:52.530Z,97.69
2018-11-23T02:41:52.518Z,98.22
2018-11-23T02:42:52.506Z,98.11
2018-11-23T02:43:52.543Z,97.80
2018-11-23T02:44:52.487Z,98.11
2018-11-23T02:45:52.472Z,98.00
2018-11-23T02:46:52.462Z,98.32
2018-11-23T02:47:52.456Z,98.11
2018-11-23T02:48:52.440Z,98.22
2018-11-23T02:49:52.454Z,98.11
2018-11-23T02:50:52.417Z,97.96
2018-11-23T02:51:52.406Z,98.49
2018-11-23T02:52:52.401Z,98.22
2018-11-23T02:53:52.383Z,98.22
2018-11-23T02:54:52.374Z,98.22
2018-11-23T02:55:52.381Z,98.00
2018-11-23T02:56:52.349Z,98.11
2018-11-23T02:57:52.339Z,98.22
2018-11-23T02:58:52.327Z,98.22
2018-11-23T02:59:52.316Z,98.32
2018-11-23T03:00:52.324Z,98.22
2018-11-23T03:01:52.300Z,97.58
2018-11-23T03:02:52.299Z,97.69
2018-11-23T03:03:52.271Z,97.69
2018-11-23T03:04:52.261Z,97.58
2018-11-23T03:05:52.250Z,98.43
2018-11-23T03:06:52.237Z,98.85
2018-11-23T03:07:52.250Z,98.74
2018-11-23T03:08:52.216Z,98.38
2018-11-23T03:09:52.204Z,98.49
2018-11-23T03:10:52.193Z,98.80
2018-11-23T03:11:52.183Z,98.91
2018-11-23T03:12:52.197Z,99.27
2018-11-23T03:13:52.159Z,99.27
2018-11-23T03:14:52.148Z,98.95
2018-11-23T03:15:52.139Z,99.05
2018-11-23T03:16:52.128Z,99.99
2018-11-23T03:17:52.114Z,99.70
2018-11-23T03:18:52.123Z,99.55
2018-11-23T03:19:52.093Z,99.99
2018-11-23T03:20:52.083Z,99.87
2018-11-23T03:21:52.071Z,99.13
2018-11-23T03:22:52.061Z,99.80
2018-11-23T03:23:52.068Z,99.28
2018-11-23T03:24:52.038Z,99.28
2018-11-23T03:25:52.026Z,99.38
2018-11-23T03:26:52.015Z,98.97
2018-11-23T03:27:52.004Z,99.22
2018-11-23T03:28:52.018Z,99.80
2018-11-23T03:29:51.983Z,99.54
2018-11-23T03:30:51.971Z,99.58
2018-11-23T03:31:51.960Z,99.01
2018-11-23T03:32:51.949Z,98.80
2018-11-23T03:33:51.938Z,99.27
2018-11-23T03:34:51.946Z,98.53
2018-11-23T03:35:51.915Z,99.05
2018-11-23T03:36:51.906Z,98.74
2018-11-23T03:37:51.892Z,98.68
2018-11-23T03:38:51.883Z,98.64
2018-11-23T03:39:51.889Z,98.43
2018-11-23T03:40:51.858Z,98.26
2018-11-23T03:41:51.849Z,98.36
2018-11-23T03:42:51.838Z,98.05
2018-11-23T03:43:51.826Z,98.36
2018-11-23T03:44:51.834Z,98.16
2018-11-23T03:45:51.805Z,98.26
2018-11-23T03:46:51.794Z,98.26
2018-11-23T03:47:51.786Z,98.89
2018-11-23T03:48:51.771Z,98.68
2018-11-23T03:49:51.779Z,98.22
2018-11-23T03:50:51.750Z,98.85
2018-11-23T03:51:51.736Z,98.16
2018-11-23T03:52:51.729Z,98.47
2018-11-23T03:53:51.718Z,98.36
2018-11-23T03:54:51.724Z,98.32
2018-11-23T03:55:51.692Z,98.26
2018-11-23T03:56:51.681Z,98.47
2018-11-23T03:57:51.673Z,98.22
2018-11-23T03:58:51.661Z,98.36
2018-11-23T03:59:51.691Z,98.47
2018-11-23T04:00:51.639Z,98.36
2018-11-23T04:01:51.633Z,98.05
2018-11-23T04:02:51.616Z,98.26
2018-11-23T04:03:51.610Z,98.16
2018-11-23T04:04:51.593Z,98.26
2018-11-23T04:05:51.600Z,98.11
2018-11-23T04:06:51.573Z,98.47
2018-11-23T04:07:51.558Z,98.22
2018-11-23T04:08:51.553Z,98.11
2018-11-23T04:09:51.537Z,98.00
2018-11-23T04:10:51.551Z,98.16
2018-11-23T04:11:51.516Z,97.94
2018-11-23T04:12:51.505Z,98.47
2018-11-23T04:13:51.491Z,97.84
2018-11-23T04:14:51.480Z,98.16
2018-11-23T04:15:51.489Z,98.26
2018-11-23T04:16:51.460Z,97.94
2018-11-23T04:17:51.450Z,98.26
2018-11-23T04:18:51.436Z,98.05
2018-11-23T04:19:51.425Z,98.26
2018-11-23T04:20:51.434Z,98.36
2018-11-23T04:21:51.405Z,98.26
2018-11-23T04:22:51.392Z,97.94
2018-11-23T04:23:51.386Z,98.68
2018-11-23T04:24:51.373Z,99.31
2018-11-23T04:25:51.383Z,99.21
2018-11-23T04:26:51.350Z,99.52
2018-11-23T04:27:51.337Z,99.63
2018-11-23T04:28:51.324Z,99.41
2018-11-23T04:29:51.313Z,99.41
2018-11-23T04:30:51.305Z,99.16
2018-11-23T04:31:51.318Z,99.16
2018-11-23T04:32:51.281Z,99.63
2018-11-23T04:33:51.270Z,99.27
2018-11-23T04:34:51.258Z,99.31
2018-11-23T04:35:51.247Z,99.48
2018-11-23T04:36:51.255Z,99.27
2018-11-23T04:37:51.232Z,99.43
2018-11-23T04:38:51.214Z,99.22
2018-11-23T04:39:51.202Z,99.22
2018-11-23T04:40:51.192Z,99.43
2018-11-23T04:41:51.198Z,99.64
2018-11-23T04:42:51.169Z,99.43
2018-11-23T04:43:51.158Z,99.64
2018-11-23T04:44:51.147Z,99.43
2018-11-23T04:45:51.136Z,99.99
2018-11-23T04:46:51.147Z,99.80
2018-11-23T04:47:51.114Z,99.87
2018-11-23T04:48:51.102Z,99.99
2018-11-23T04:49:51.093Z,99.93
2018-11-23T04:50:51.093Z,99.66
2018-11-23T04:51:51.162Z,99.76
2018-11-23T04:52:51.061Z,99.80
2018-11-23T04:53:51.046Z,99.99
2018-11-23T04:54:51.035Z,99.80
2018-11-23T04:55:51.024Z,99.80
2018-11-23T04:56:51.031Z,99.99
2018-11-23T04:57:53.775Z,99.80
2018-11-23T04:58:50.995Z,99.97
2018-11-23T04:59:50.978Z,99.97
2018-11-23T05:00:51.018Z,99.70
2018-11-23T05:01:50.982Z,99.55
2018-11-23T05:02:50.944Z,99.97
2018-11-23T05:03:50.933Z,99.55
2018-11-23T05:04:50.922Z,99.55
2018-11-23T05:05:50.910Z,99.87
2018-11-23T05:06:50.919Z,99.97
2018-11-23T05:07:50.889Z,99.97
2018-11-23T05:08:50.878Z,99.70
2018-11-23T05:09:50.865Z,99.99
2018-11-23T05:10:50.857Z,99.99
2018-11-23T05:11:50.869Z,99.38
2018-11-23T05:12:50.832Z,99.91
2018-11-23T05:13:50.821Z,99.60
2018-11-23T05:14:50.809Z,99.49
2018-11-23T05:15:50.800Z,99.99
2018-11-23T05:16:50.788Z,99.99
2018-11-23T05:17:50.797Z,99.55
2018-11-23T05:18:50.770Z,99.99
2018-11-23T05:19:50.755Z,99.76
2018-11-23T05:20:50.741Z,99.87
2018-11-23T05:21:50.731Z,99.97
2018-11-23T05:22:50.738Z,99.99
2018-11-23T05:23:50.707Z,99.99
2018-11-23T05:24:50.696Z,99.99
2018-11-23T05:25:50.685Z,99.99
2018-11-23T05:26:50.672Z,99.99
2018-11-23T05:27:50.683Z,99.44
2018-11-23T05:28:50.653Z,99.99
2018-11-23T05:29:50.640Z,99.97
2018-11-23T05:30:50.632Z,99.99
2018-11-23T05:31:50.618Z,99.99
2018-11-23T05:32:50.629Z,99.88
2018-11-23T05:33:50.595Z,99.67
2018-11-23T05:34:50.589Z,99.99
2018-11-23T05:35:50.571Z,99.63
2018-11-23T05:36:50.561Z,99.77
2018-11-23T05:37:50.549Z,99.94
2018-11-23T05:38:50.560Z,99.99
2018-11-23T05:39:50.529Z,99.41
2018-11-23T05:40:50.515Z,99.84
2018-11-23T05:41:50.504Z,99.21
2018-11-23T05:42:50.495Z,99.52
2018-11-23T05:43:50.499Z,99.41
2018-11-23T05:44:50.481Z,99.73
2018-11-23T05:45:50.458Z,99.21
2018-11-23T05:46:50.449Z,99.21
2018-11-23T05:47:50.438Z,98.79
2018-11-23T05:48:50.445Z,99.31
2018-11-23T05:49:50.416Z,99.00
2018-11-23T05:50:50.406Z,98.89
2018-11-23T05:51:50.391Z,99.05
2018-11-23T05:52:50.381Z,99.05
2018-11-23T05:53:50.385Z,98.54
2018-11-23T05:54:50.357Z,98.68
2018-11-23T05:55:50.344Z,98.79
2018-11-23T05:56:50.334Z,98.58
2018-11-23T05:57:50.324Z,98.05
2018-11-23T05:58:50.330Z,98.26
2018-11-23T05:59:50.301Z,97.68
2018-11-23T06:00:50.289Z,98.31
2018-11-23T06:01:50.278Z,97.58
2018-11-23T06:02:50.266Z,97.99
2018-11-23T06:03:50.287Z,97.78
2018-11-23T06:04:50.247Z,97.99
2018-11-23T06:05:50.234Z,97.62
2018-11-23T06:06:50.221Z,97.83
2018-11-23T06:07:50.213Z,98.35
2018-11-23T06:08:50.216Z,99.41
2018-11-23T06:09:50.187Z,99.10
2018-11-23T06:10:50.181Z,99.41
2018-11-23T06:11:50.164Z,99.10
2018-11-23T06:12:50.152Z,99.10
2018-11-23T06:13:50.162Z,99.31
2018-11-23T06:14:50.130Z,99.41
2018-11-23T06:15:50.127Z,98.89
2018-11-23T06:16:50.113Z,98.68
2018-11-23T06:17:50.101Z,98.68
2018-11-23T06:18:50.110Z,98.68
2018-11-23T06:19:50.072Z,98.16
2018-11-23T06:20:50.063Z,98.79
2018-11-23T06:21:50.051Z,98.89
2018-11-23T06:22:50.057Z,98.32
2018-11-23T06:23:50.029Z,98.58
2018-11-23T06:24:50.023Z,97.91
2018-11-23T06:25:50.995Z,98.01
2018-11-23T06:26:49.998Z,97.80
2018-11-23T06:27:50.002Z,98.16
2018-11-23T06:28:49.970Z,97.74
2018-11-23T06:29:49.963Z,98.05
2018-11-23T06:30:49.949Z,97.85
2018-11-23T06:31:49.938Z,97.91
2018-11-23T06:32:49.972Z,98.22
2018-11-23T06:33:49.917Z,98.32
2018-11-23T06:34:49.903Z,97.59
2018-11-23T06:35:49.910Z,98.01
2018-11-23T06:36:49.881Z,98.16
2018-11-23T06:37:49.872Z,98.64
2018-11-23T06:38:49.876Z,98.22
2018-11-23T06:39:49.846Z,98.11
2018-11-23T06:40:49.834Z,97.80
2018-11-23T06:41:49.827Z,97.53
2018-11-23T06:42:49.841Z,97.91
2018-11-23T06:43:49.806Z,98.32
2018-11-23T06:44:49.791Z,98.54
2018-11-23T06:45:49.778Z,99.32
2018-11-23T06:46:49.769Z,98.86
2018-11-23T06:47:49.776Z,98.65
2018-11-23T06:48:49.749Z,97.61
2018-11-23T06:49:49.732Z,97.19
2018-11-23T06:50:49.723Z,96.66
2018-11-23T06:51:49.712Z,96.56
2018-11-23T06:52:49.720Z,96.25
2018-11-23T06:53:49.688Z,96.29
2018-11-23T06:54:49.684Z,96.50
2018-11-23T06:55:49.666Z,96.29
2018-11-23T06:56:49.656Z,96.86
2018-11-23T06:57:49.669Z,96.92
2018-11-23T06:58:49.632Z,96.96
2018-11-23T06:59:49.621Z,97.06
2018-11-23T07:00:49.610Z,97.17
2018-11-23T07:01:49.601Z,97.49
2018-11-23T07:02:49.587Z,97.91
2018-11-23T07:03:49.594Z,97.86
2018-11-23T07:04:49.566Z,97.44
2018-11-23T07:05:49.553Z,97.86
2018-11-23T07:06:49.543Z,97.44
2018-11-23T07:07:49.533Z,97.96
2018-11-23T07:08:52.585Z,97.75
2018-11-23T07:09:49.508Z,97.96
2018-11-23T07:10:49.496Z,97.34
2018-11-23T07:11:49.484Z,97.49
2018-11-23T07:12:49.475Z,96.92
2018-11-23T07:13:49.481Z,97.17
2018-11-23T07:14:49.453Z,97.17
2018-11-23T07:15:49.441Z,97.02
2018-11-23T07:16:49.432Z,97.38
2018-11-23T07:17:49.417Z,97.49
2018-11-23T07:18:49.422Z,97.06
2018-11-23T07:19:49.393Z,97.06
2018-11-23T07:20:49.383Z,97.34
2018-11-23T07:21:49.374Z,97.06
2018-11-23T07:22:49.362Z,96.96
2018-11-23T07:23:49.604Z,96.55
2018-11-23T07:24:49.341Z,96.75
2018-11-23T07:25:49.327Z,96.86
2018-11-23T07:26:49.327Z,96.44
2018-11-23T07:27:49.304Z,96.55
2018-11-23T07:28:49.292Z,96.96
2018-11-23T07:29:49.300Z,97.34
2018-11-23T07:30:49.273Z,97.23
2018-11-23T07:31:49.258Z,97.23
2018-11-23T07:32:49.249Z,97.44
2018-11-23T07:33:49.236Z,96.71
2018-11-23T07:34:49.249Z,96.45
2018-11-23T07:35:49.212Z,95.93
2018-11-23T07:36:49.201Z,96.35
2018-11-23T07:37:49.199Z,96.61
2018-11-23T07:38:49.178Z,96.35
2018-11-23T07:39:49.167Z,95.99
2018-11-23T07:40:49.176Z,96.41
2018-11-23T07:41:49.150Z,96.25
2018-11-23T07:42:49.132Z,95.83
2018-11-23T07:43:49.122Z,96.04
2018-11-23T07:44:49.111Z,96.41
2018-11-23T07:45:49.119Z,95.99
2018-11-23T07:46:49.089Z,95.68
2018-11-23T07:47:49.079Z,96.16
2018-11-23T07:48:49.071Z,95.99
2018-11-23T07:49:49.055Z,95.32
2018-11-23T07:50:49.061Z,95.21
2018-11-23T07:51:49.031Z,95.11
2018-11-23T07:52:49.021Z,95.64
2018-11-23T07:53:49.009Z,94.49
2018-11-23T07:54:49.000Z,94.59
2018-11-23T07:55:49.003Z,94.59
2018-11-23T07:56:48.977Z,94.07
2018-11-23T07:57:48.964Z,94.17
2018-11-23T07:58:48.954Z,94.49
2018-11-23T07:59:48.942Z,94.90
2018-11-23T08:00:48.954Z,94.59
2018-11-23T08:01:48.920Z,94.49
2018-11-23T08:02:48.908Z,94.70
2018-11-23T08:03:48.896Z,94.38
2018-11-23T08:04:48.885Z,93.96
2018-11-23T08:05:48.875Z,94.34
2018-11-23T08:06:48.883Z,94.23
2018-11-23T08:07:48.852Z,94.38
2018-11-23T08:08:48.841Z,94.59
2018-11-23T08:09:48.829Z,93.82
2018-11-23T08:10:48.819Z,94.17
2018-11-23T08:11:48.824Z,93.76
2018-11-23T08:12:48.797Z,93.71
2018-11-23T08:13:48.784Z,93.40
2018-11-23T08:14:48.772Z,93.61
2018-11-23T08:15:48.763Z,93.40
2018-11-23T08:16:48.768Z,93.61
2018-11-23T08:17:48.739Z,94.13
2018-11-23T08:18:48.727Z,94.44
2018-11-23T08:19:48.718Z,93.71
2018-11-23T08:20:48.709Z,94.02
2018-11-23T08:21:48.712Z,93.71
2018-11-23T08:23:40.411Z,93.67
2018-11-23T08:24:40.400Z,93.46
2018-11-23T08:25:40.388Z,93.35
2018-11-23T08:26:40.398Z,93.57
2018-11-23T08:27:40.367Z,93.04
2018-11-23T08:28:40.354Z,93.15
2018-11-23T08:29:40.344Z,93.15
2018-11-23T08:30:40.333Z,92.90
2018-11-23T08:31:40.343Z,93.10
2018-11-23T08:32:40.318Z,93.06
2018-11-23T08:33:40.297Z,92.71
2018-11-23T08:34:40.288Z,90.89
2018-11-23T08:35:40.275Z,91.00
2018-11-23T08:36:40.264Z,90.44
2018-11-23T08:37:40.272Z,88.43
2018-11-23T08:38:40.248Z,85.36
2018-11-23T08:39:40.232Z,81.48
2018-11-23T08:40:40.219Z,79.82
2018-11-23T08:41:40.212Z,80.58
2018-11-23T08:42:40.215Z,82.73
2018-11-23T08:43:40.185Z,82.72
2018-11-23T08:44:40.175Z,79.71
2018-11-23T08:45:40.162Z,76.84
2018-11-23T08:46:40.152Z,71.30
2018-11-23T08:47:40.163Z,72.33
2018-11-23T08:48:40.131Z,70.90
2018-11-23T08:49:40.118Z,67.44
2018-11-23T08:50:40.111Z,64.78
2018-11-23T08:51:40.099Z,65.26
2018-11-23T08:52:40.099Z,64.79
2018-11-23T08:53:40.073Z,61.55
2018-11-23T08:54:40.059Z,60.71
2018-11-23T08:55:40.049Z,59.45
2018-11-23T08:56:40.038Z,58.43
2018-11-23T08:57:40.045Z,58.40
2018-11-23T08:58:40.022Z,58.63
2018-11-23T08:59:40.002Z,59.01
2018-11-23T09:00:39.989Z,58.89
2018-11-23T09:01:39.977Z,58.01
2018-11-23T09:02:39.967Z,57.17
2018-11-23T09:03:39.982Z,57.42
2018-11-23T09:04:39.943Z,55.87
2018-11-23T09:05:39.932Z,52.27
2018-11-23T09:06:39.919Z,52.15
2018-11-23T09:07:39.911Z,52.25
2018-11-23T09:08:39.899Z,52.83
2018-11-23T09:09:39.906Z,50.59
2018-11-23T09:10:39.876Z,50.11
2018-11-23T09:11:39.861Z,51.43
2018-11-23T09:12:39.850Z,52.12
2018-11-23T09:13:39.857Z,50.16
2018-11-23T09:14:39.831Z,50.04
2018-11-23T09:15:39.817Z,49.20
2018-11-23T09:16:39.805Z,49.20
2018-11-23T09:17:39.797Z,49.16
2018-11-23T09:18:39.822Z,47.10
2018-11-23T09:19:39.769Z,46.47
2018-11-23T09:20:39.759Z,44.95
2018-11-23T09:21:39.747Z,45.89
2018-11-23T09:22:39.738Z,46.51
2018-11-23T09:23:39.725Z,46.31
2018-11-23T09:24:39.731Z,46.66
2018-11-23T09:25:39.716Z,48.21
2018-11-23T09:26:39.690Z,49.43
2018-11-23T09:27:39.678Z,48.51
2018-11-23T09:28:39.667Z,46.48
2018-11-23T09:29:39.675Z,47.58
2018-11-23T09:30:39.647Z,47.30
2018-11-23T09:31:39.633Z,46.37
2018-11-23T09:32:39.621Z,45.15
2018-11-23T09:33:39.617Z,45.25
2018-11-23T09:34:40.779Z,45.56
2018-11-23T09:35:39.587Z,45.89
2018-11-23T09:36:39.575Z,46.44
2018-11-23T09:37:39.565Z,46.31
2018-11-23T09:38:39.556Z,46.19
2018-11-23T09:39:39.562Z,45.68
2018-11-23T09:40:39.529Z,46.09
2018-11-23T09:41:39.519Z,45.13
2018-11-23T09:42:39.505Z,43.57
2018-11-23T09:43:39.532Z,43.73
2018-11-23T09:44:39.483Z,42.27
2018-11-23T09:45:39.490Z,42.80
2018-11-23T09:46:39.460Z,42.05
2018-11-23T09:47:39.451Z,41.52
2018-11-23T09:48:39.438Z,41.10
2018-11-23T09:49:39.520Z,40.56
2018-11-23T09:50:39.433Z,40.34
2018-11-23T09:51:39.422Z,40.42
2018-11-23T09:52:39.390Z,39.09
2018-11-23T09:53:39.378Z,39.09
2018-11-23T09:54:39.368Z,39.39
2018-11-23T09:55:39.394Z,38.59
2018-11-23T09:56:39.342Z,37.98
2018-11-23T09:57:39.336Z,38.91
2018-11-23T09:58:43.381Z,39.61
2018-11-23T09:59:39.309Z,38.89
2018-11-23T10:00:39.298Z,38.47
2018-11-23T10:01:39.306Z,38.50
2018-11-23T10:02:39.278Z,39.39
2018-11-23T10:03:39.267Z,40.72
2018-11-23T10:04:39.253Z,41.04
2018-11-23T10:05:39.243Z,42.15
2018-11-23T10:06:39.248Z,40.70
2018-11-23T10:07:39.223Z,40.78
2018-11-23T10:08:39.208Z,40.36
2018-11-23T10:09:39.196Z,39.94
2018-11-23T10:10:39.187Z,39.03
2018-11-23T10:11:39.191Z,38.81
2018-11-23T10:12:39.161Z,38.71
2018-11-23T10:13:39.151Z,38.69
2018-11-23T10:14:39.141Z,38.15
2018-11-23T10:15:39.130Z,38.33
2018-11-23T10:16:39.137Z,36.40
2018-11-23T10:17:39.110Z,36.58
2018-11-23T10:18:39.094Z,37.57
2018-11-23T10:19:39.084Z,36.07
2018-11-23T10:20:39.073Z,37.29
2018-11-23T10:21:39.079Z,36.49
2018-11-23T10:22:39.049Z,37.81
2018-11-23T10:23:39.039Z,36.50
2018-11-23T10:24:39.026Z,36.40
2018-11-23T10:25:39.014Z,36.90
2018-11-23T10:26:39.020Z,37.66
2018-11-23T10:27:39.016Z,38.59
2018-11-23T10:28:38.983Z,38.69
2018-11-23T10:29:38.971Z,38.17
2018-11-23T10:30:38.957Z,38.25
2018-11-23T10:31:38.966Z,38.33
2018-11-23T10:32:38.936Z,37.73
2018-11-23T10:33:38.923Z,37.65
2018-11-23T10:34:38.910Z,38.07
2018-11-23T10:35:38.900Z,38.59
2018-11-23T10:36:38.907Z,38.67
2018-11-23T10:37:38.879Z,38.27
2018-11-23T10:38:38.868Z,38.35
2018-11-23T10:39:38.855Z,37.73
2018-11-23T10:40:38.863Z,37.43
2018-11-23T10:41:38.857Z,37.63
2018-11-23T10:42:38.822Z,37.91
2018-11-23T10:43:38.809Z,37.34
2018-11-23T10:44:38.798Z,37.54
2018-11-23T10:45:38.787Z,38.73
2018-11-23T10:47:38.780Z,37.30
2018-11-23T10:48:38.750Z,36.49
2018-11-23T10:49:38.740Z,36.08
2018-11-23T10:50:38.732Z,37.30
2018-11-23T10:51:38.715Z,36.49
2018-11-23T10:52:38.724Z,36.79
2018-11-23T10:53:38.692Z,37.47
2018-11-23T10:54:38.680Z,36.67
2018-11-23T10:55:38.670Z,37.26
2018-11-23T10:56:38.660Z,36.63
2018-11-23T10:57:38.691Z,36.63
2018-11-23T10:58:38.635Z,36.43
2018-11-23T10:59:39.759Z,35.73
2018-11-23T11:00:38.614Z,36.35
2018-11-23T11:01:38.597Z,35.75
2018-11-23T11:02:38.590Z,36.67
2018-11-23T11:03:38.595Z,37.29
2018-11-23T11:04:38.564Z,37.30
2018-11-23T11:05:38.552Z,38.13
2018-11-23T11:06:38.539Z,37.54
2018-11-23T11:07:38.532Z,38.48
2018-11-23T11:08:38.540Z,40.32
2018-11-23T11:09:38.504Z,39.92
2018-11-23T11:10:38.495Z,39.31
2018-11-23T11:11:38.481Z,38.87
2018-11-23T11:12:38.471Z,38.79
2018-11-23T11:13:38.459Z,39.92
2018-11-23T11:14:38.466Z,39.48
2018-11-23T11:15:38.436Z,38.65
2018-11-23T11:16:38.425Z,37.63
2018-11-23T11:17:38.417Z,38.21
2018-11-23T11:18:38.405Z,36.79
2018-11-23T11:19:38.410Z,38.40
2018-11-23T11:20:38.380Z,37.51
2018-11-23T11:21:38.372Z,37.71
2018-11-23T11:22:38.358Z,37.63
2018-11-23T11:23:38.351Z,38.53
2018-11-23T11:24:38.355Z,37.85
2018-11-23T11:25:38.324Z,38.05
2018-11-23T11:26:38.313Z,38.37
2018-11-23T11:27:38.302Z,38.69
2018-11-23T11:28:38.313Z,38.67
2018-11-23T11:29:38.280Z,38.97
2018-11-23T11:30:38.268Z,38.45
2018-11-23T11:31:38.259Z,38.15
2018-11-23T11:32:38.249Z,38.65
2018-11-23T11:33:38.258Z,38.53
2018-11-23T11:34:38.224Z,38.62
2018-11-23T11:35:38.216Z,37.79
2018-11-23T11:36:38.202Z,37.52
2018-11-23T11:37:38.194Z,37.83
2018-11-23T11:38:38.181Z,38.03
2018-11-23T11:39:38.185Z,37.69
2018-11-23T11:40:38.157Z,37.87
2018-11-23T11:41:38.145Z,36.93
2018-11-23T11:42:38.133Z,36.40
2018-11-23T11:43:38.123Z,35.98
2018-11-23T11:44:38.129Z,35.26
2018-11-23T11:45:38.106Z,34.94
2018-11-23T11:46:38.088Z,34.74
2018-11-23T11:47:38.075Z,35.43
2018-11-23T11:48:38.064Z,35.66
2018-11-23T11:49:38.074Z,36.28
2018-11-23T11:50:38.041Z,35.38
2018-11-23T11:51:38.030Z,35.68
2018-11-23T11:52:38.016Z,35.94
2018-11-23T11:53:38.006Z,34.84
2018-11-23T11:54:38.013Z,34.93
2018-11-23T11:55:37.983Z,36.11
2018-11-23T11:56:37.970Z,37.51
2018-11-23T11:57:37.964Z,39.28
2018-11-23T11:58:37.950Z,40.28
2018-11-23T11:59:37.956Z,40.72
2018-11-23T12:00:37.927Z,40.38
2018-11-23T12:01:37.912Z,39.14
2018-11-23T12:02:37.900Z,38.71
2018-11-23T12:03:37.891Z,39.34
2018-11-23T12:04:37.901Z,39.92
2018-11-23T12:05:37.866Z,38.07
2018-11-23T12:06:37.854Z,37.82
2018-11-23T12:07:37.844Z,36.80
2018-11-23T12:08:37.831Z,36.78
2018-11-23T12:09:37.820Z,36.33
2018-11-23T12:10:37.833Z,38.29
2018-11-23T12:11:37.799Z,38.92
2018-11-23T12:12:37.789Z,38.70
2018-11-23T12:13:37.776Z,37.87
2018-11-23T12:14:37.783Z,38.26
2018-11-23T12:15:37.753Z,38.04
2018-11-23T12:16:37.741Z,37.70
2018-11-23T12:17:37.731Z,36.90
2018-11-23T12:18:37.720Z,37.30
2018-11-23T12:19:37.729Z,37.42
2018-11-23T12:20:37.700Z,36.90
2018-11-23T12:21:37.689Z,38.12
2018-11-23T12:22:37.676Z,38.04
2018-11-23T12:23:37.663Z,37.34
2018-11-23T12:24:37.677Z,37.92
2018-11-23T12:25:37.642Z,37.74
2018-11-23T12:26:37.631Z,38.38
2018-11-23T12:27:37.623Z,38.28
2018-11-23T12:28:37.609Z,38.88
2018-11-23T12:29:37.595Z,38.76
2018-11-23T12:30:37.604Z,38.36
2018-11-23T12:31:37.582Z,38.26
2018-11-23T12:32:37.566Z,38.46
2018-11-23T12:33:37.552Z,38.26
2018-11-23T12:34:37.541Z,38.26
2018-11-23T12:35:37.549Z,38.36
2018-11-23T12:36:37.519Z,39.08
2018-11-23T12:37:37.504Z,38.68
2018-11-23T12:38:40.190Z,38.48
2018-11-23T12:39:38.482Z,40.19
2018-11-23T12:40:37.492Z,38.78
2018-11-23T12:41:37.461Z,38.70
2018-11-23T12:42:37.452Z,38.92
2018-11-23T12:43:37.443Z,39.32
2018-11-23T12:44:37.427Z,40.58
2018-11-23T12:45:37.434Z,41.19
2018-11-23T12:46:37.403Z,40.78
2018-11-23T12:47:37.393Z,41.59
2018-11-23T12:48:37.381Z,41.06
2018-11-23T12:49:37.369Z,41.37
2018-11-23T12:50:37.387Z,40.75
2018-11-23T12:51:37.350Z,40.97
2018-11-23T12:52:37.339Z,41.47
2018-11-23T12:53:37.329Z,42.13
2018-11-23T12:54:37.314Z,42.41